Skip Navigation LinksHome page > Weather > Current weather Skip Navigation Links

Current Weather

San Francisco International, San Francisco

For information only: do not use for flight planning or navigation.
Latest weather
Observation time Wednesday, November 25, 2015 3:56 PM PST
Local time Wednesday, November 25, 2015 4:08 PM PST
Flight conditions Visual Meteorological Conditions
Wind direction Northwest (310°)
Wind speed 6 mph
Visibility 10 mi.
Sky condition
Ceiling unlimited
Cloud layer few clouds 3,800 ft.
Temperature 53°F
Dewpoint 33°F
Altimeter 29.95 in.Hg
Pressure change last 3 hours-0.01 in.Hg
Pressure rising more quickly
Derived measurements
Relative humidity 46%
Density altitude -315 ft.
Sea-level pressure 29.95 in.Hg
Climate data
Temperature minimum, last 6 hours 50°F
Temperature maximum, last 6 hours 54°F
Automated weather observing station with precipitation discriminator.
METAR KSFO 252356Z 31005KT 10SM FEW038 12/01 A2995 RMK AO2 SLP141 T01170006 10122 20100 53005


Location code

InnerDrive.Weather 4.0.5722.1 Release CLR 4.0.30319.34014
Copyright ©2015 Inner Drive Technology. All rights reserved. Portions Copyright ©1986-2015 David Braverman.

Find weather

Site navigation

Skip Navigation Links

Place info

Page info

PayPal - The safer, easier way to pay online!

Return home.

Copyright ©2015 Inner Drive Technology. Purveyors of fine, hand-crafted computer software. Page printed 2015-11-26T00:08:28 UTC.